Finlandia — OJPP — position and weather

sailwx.info

Track history (hours):
 
Tides and Currents Weather Stations Pressure Air Temp Water Temp Dewpoint Dewpoint Depression Visibility Wind Speed Wind Dir Waves Ship Positions

Finlandia

Last reported at 2015-Mar-06 19:29 UTC. Time now 2015-Mar-06 20:07 UTC.
Position N 60°08' E 024°54'.

Length 175 m; draft 7 m.

Type: Passenger vessel. MMSI: 230628000.

Date/timePositionNaut miles runAvg speedWind from/ knotsBaromVisibWave heightAir tempDewpointWater temp
2015-Mar-06 19:29N 60°08' E 024°54'2424.5
2015-Mar-06 18:31N 59°45' E 024°49'1819.2
2015-Mar-06 17:33N 59°27' E 024°46'1 0.6
2015-Mar-06 16:33N 59°27' E 024°47'8 8.3
2015-Mar-06 15:33N 59°35' E 024°41'3410.1
2015-Mar-06 12:10N 60°08' E 024°54'3219.7
2015-Mar-06 10:34N 59°37' E 024°42'1110.7
2015-Mar-06 09:32N 59°27' E 024°46'4 4.0
2015-Mar-06 08:33N 59°31' E 024°44'2119.5
2015-Mar-06 07:30N 59°51' E 024°50'17 1.2
2015-Mar-05 17:34N 59°35' E 024°42'8 7.8
2015-Mar-05 16:32N 59°27' E 024°46'7 6.9
2015-Mar-05 15:33N 59°33' E 024°42'3610.6
2015-Mar-05 12:11N 60°08' E 024°54'3320.0
2015-Mar-05 10:33N 59°37' E 024°41'1010.0
2015-Mar-05 09:33N 59°27' E 024°46'3 3.4
2015-Mar-05 08:34N 59°30' E 024°45'16 1.1
2015-Mar-04 18:04N 59°46' E 024°49'1224.6
2015-Mar-04 17:34N 59°34' E 024°42'8 7.5
2015-Mar-04 16:32N 59°27' E 024°46'8 8.7
2015-Mar-04 15:34N 59°35' E 024°41'18 4.3
2015-Mar-04 11:22N 59°52' E 024°48'1720.7
2015-Mar-04 10:33N 59°36' E 024°41'10 9.4
2015-Mar-04 09:33N 59°27' E 024°46'3 2.7
2015-Mar-04 08:34N 59°29' E 024°45'1919.1
2015-Mar-04 07:33N 59°49' E 024°49'2019.4
2015-Mar-04 06:31N 60°09' E 024°54'0 0.0
2015-Mar-03 19:08N 60°09' E 024°54'2422.5
2015-Mar-03 18:04N 59°45' E 024°48'1122.7
2015-Mar-03 17:34N 59°34' E 024°43'7 6.7
2015-Mar-03 16:31N 59°27' E 024°46'9 8.9
2015-Mar-03 15:33N 59°35' E 024°41'1817.9
2015-Mar-03 14:32N 59°52' E 024°51'16 7.3
2015-Mar-03 12:19N 60°09' E 024°54'2519.9
2015-Mar-03 11:03N 59°44' E 024°48'1020.1
2015-Mar-03 10:34N 59°34' E 024°43'7 7.5
2015-Mar-03 09:34N 59°27' E 024°46'3 3.5
2015-Mar-03 08:33N 59°30' E 024°44'1919.1
2015-Mar-03 07:33N 59°49' E 024°50'2019.4
2015-Mar-03 06:33N 60°09' E 024°54'23 1.8
2015-Mar-02 18:07N 59°46' E 024°49'1424.6
2015-Mar-02 17:34N 59°32' E 024°44'6 5.3
2015-Mar-02 16:30N 59°27' E 024°46'7 7.9
2015-Mar-02 15:33N 59°34' E 024°41'1817.6
2015-Mar-02 14:32N 59°52' E 024°47'14 3.6
2015-Mar-02 10:34N 59°38' E 024°42'1110.8
2015-Mar-02 09:33N 59°27' E 024°46'3 2.6
2015-Mar-02 08:33N 59°29' E 024°45'2019.6
2015-Mar-02 07:33N 59°49' E 024°46'9 0.6
2015-Mar-01 17:33N 59°40' E 024°44'1313.1
2015-Mar-01 16:33N 59°27' E 024°46'0 0.0
2015-Mar-01 15:33N 59°27' E 024°46'2019.7
2015-Mar-01 14:33N 59°46' E 024°44'9 2.2
2015-Mar-01 10:33N 59°38' E 024°42'1111.2
2015-Mar-01 09:33N 59°27' E 024°46'2 2.1
2015-Mar-01 08:34N 59°29' E 024°46'2019.5
2015-Mar-01 07:34N 59°48' E 024°47'3 0.2
2015-Feb-28 18:08N 59°51' E 024°50'1423.4
2015-Feb-28 17:33N 59°38' E 024°42'1211.1
2015-Feb-28 16:31N 59°27' E 024°46'7 7.4
2015-Feb-28 15:33N 59°34' E 024°42'1717.2
2015-Feb-28 14:33N 59°51' E 024°47'1717.1
2015-Feb-28 13:33N 60°07' E 024°54'2 1.2
2015-Feb-28 12:13N 60°09' E 024°55'1317.6
2015-Feb-28 11:29N 59°56' E 024°53'1920.0
2015-Feb-28 10:33N 59°38' E 024°42'1210.6
2015-Feb-28 09:28N 59°27' E 024°46'4 4.3
2015-Feb-28 08:33N 59°31' E 024°44'2019.8
2015-Feb-28 07:33N 59°50' E 024°48'1914.2
2015-Feb-28 06:12N 60°09' E 024°55'24 2.0
2015-Feb-27 18:04N 59°45' E 024°48'1224.2
2015-Feb-27 17:34N 59°33' E 024°43'7 6.5
2015-Feb-27 16:31N 59°27' E 024°46'7 7.4
2015-Feb-27 15:33N 59°34' E 024°42'2118.1
2015-Feb-27 14:25N 59°54' E 024°51'4 1.3
2015-Feb-27 11:14N 59°51' E 024°55'1420.8
2015-Feb-27 10:34N 59°38' E 024°42'1110.8
2015-Feb-27 09:31N 59°27' E 024°46'3 3.5
2015-Feb-27 08:33N 59°30' E 024°44'2019.4
2015-Feb-27 07:33N 59°50' E 024°47'1919.2
2015-Feb-27 06:33N 60°08' E 024°54'19 1.6
2015-Feb-26 18:26N 59°50' E 024°47'2124.2
2015-Feb-26 17:34N 59°29' E 024°46'2 2.2
2015-Feb-26 16:33N 59°27' E 024°46'9 9.0
2015-Feb-26 15:33N 59°35' E 024°41'11 2.5
2015-Feb-26 11:08N 59°45' E 024°49'1220.6
2015-Feb-26 10:33N 59°34' E 024°43'7 7.3
2015-Feb-26 09:33N 59°27' E 024°46'3 3.4
2015-Feb-26 08:33N 59°30' E 024°45'1918.7
2015-Feb-26 07:33N 59°49' E 024°47'2019.5
2015-Feb-26 06:31N 60°09' E 024°54'23 1.9
2015-Feb-25 18:14N 59°46' E 024°48'1724.7
2015-Feb-25 17:34N 59°29' E 024°46'2 2.0
2015-Feb-25 16:31N 59°27' E 024°46'7 7.8
2015-Feb-25 15:34N 59°34' E 024°42'1818.1
2015-Feb-25 14:33N 59°52' E 024°49'2 0.6
2015-Feb-25 11:20N 59°50' E 024°47'1621.2
2015-Feb-25 10:34N 59°34' E 024°43'7 7.0
2015-Feb-25 09:31N 59°27' E 024°46'4 3.7
2015-Feb-25 08:33N 59°30' E 024°44'1919.1
2015-Feb-25 07:33N 59°49' E 024°50'  
Track history (hours):
 
Tides and Currents Weather Stations Pressure Air Temp Water Temp Dewpoint Dewpoint Depression Visibility Wind Speed Wind Dir Waves Ship Positions

Finlandia

Last reported at 2015-Mar-06 19:29 UTC. Time now 2015-Mar-06 20:07 UTC.
Position N 60°08' E 024°54'.

Length 175 m; draft 7 m.

Type: Passenger vessel. MMSI: 230628000.

Date/timePositionNaut miles runAvg speedWind from/ knotsBaromVisibWave heightAir tempDewpointWater temp
2015-Mar-06 19:29N 60°08' E 024°54'2424.5
2015-Mar-06 18:31N 59°45' E 024°49'1819.2
2015-Mar-06 17:33N 59°27' E 024°46'1 0.6
2015-Mar-06 16:33N 59°27' E 024°47'8 8.3
2015-Mar-06 15:33N 59°35' E 024°41'3410.1
2015-Mar-06 12:10N 60°08' E 024°54'3219.7
2015-Mar-06 10:34N 59°37' E 024°42'1110.7
2015-Mar-06 09:32N 59°27' E 024°46'4 4.0
2015-Mar-06 08:33N 59°31' E 024°44'2119.5
2015-Mar-06 07:30N 59°51' E 024°50'17 1.2
2015-Mar-05 17:34N 59°35' E 024°42'8 7.8
2015-Mar-05 16:32N 59°27' E 024°46'7 6.9
2015-Mar-05 15:33N 59°33' E 024°42'3610.6
2015-Mar-05 12:11N 60°08' E 024°54'3320.0
2015-Mar-05 10:33N 59°37' E 024°41'1010.0
2015-Mar-05 09:33N 59°27' E 024°46'3 3.4
2015-Mar-05 08:34N 59°30' E 024°45'16 1.1
2015-Mar-04 18:04N 59°46' E 024°49'1224.6
2015-Mar-04 17:34N 59°34' E 024°42'8 7.5
2015-Mar-04 16:32N 59°27' E 024°46'8 8.7
2015-Mar-04 15:34N 59°35' E 024°41'18 4.3
2015-Mar-04 11:22N 59°52' E 024°48'1720.7
2015-Mar-04 10:33N 59°36' E 024°41'10 9.4
2015-Mar-04 09:33N 59°27' E 024°46'3 2.7
2015-Mar-04 08:34N 59°29' E 024°45'1919.1
2015-Mar-04 07:33N 59°49' E 024°49'2019.4
2015-Mar-04 06:31N 60°09' E 024°54'0 0.0
2015-Mar-03 19:08N 60°09' E 024°54'2422.5
2015-Mar-03 18:04N 59°45' E 024°48'1122.7
2015-Mar-03 17:34N 59°34' E 024°43'7 6.7
2015-Mar-03 16:31N 59°27' E 024°46'9 8.9
2015-Mar-03 15:33N 59°35' E 024°41'1817.9
2015-Mar-03 14:32N 59°52' E 024°51'16 7.3
2015-Mar-03 12:19N 60°09' E 024°54'2519.9
2015-Mar-03 11:03N 59°44' E 024°48'1020.1
2015-Mar-03 10:34N 59°34' E 024°43'7 7.5
2015-Mar-03 09:34N 59°27' E 024°46'3 3.5
2015-Mar-03 08:33N 59°30' E 024°44'1919.1
2015-Mar-03 07:33N 59°49' E 024°50'2019.4
2015-Mar-03 06:33N 60°09' E 024°54'23 1.8
2015-Mar-02 18:07N 59°46' E 024°49'1424.6
2015-Mar-02 17:34N 59°32' E 024°44'6 5.3
2015-Mar-02 16:30N 59°27' E 024°46'7 7.9
2015-Mar-02 15:33N 59°34' E 024°41'1817.6
2015-Mar-02 14:32N 59°52' E 024°47'14 3.6
2015-Mar-02 10:34N 59°38' E 024°42'1110.8
2015-Mar-02 09:33N 59°27' E 024°46'3 2.6
2015-Mar-02 08:33N 59°29' E 024°45'2019.6
2015-Mar-02 07:33N 59°49' E 024°46'9 0.6
2015-Mar-01 17:33N 59°40' E 024°44'1313.1
2015-Mar-01 16:33N 59°27' E 024°46'0 0.0
2015-Mar-01 15:33N 59°27' E 024°46'2019.7
2015-Mar-01 14:33N 59°46' E 024°44'9 2.2
2015-Mar-01 10:33N 59°38' E 024°42'1111.2
2015-Mar-01 09:33N 59°27' E 024°46'2 2.1
2015-Mar-01 08:34N 59°29' E 024°46'2019.5
2015-Mar-01 07:34N 59°48' E 024°47'3 0.2
2015-Feb-28 18:08N 59°51' E 024°50'1423.4
2015-Feb-28 17:33N 59°38' E 024°42'1211.1
2015-Feb-28 16:31N 59°27' E 024°46'7 7.4
2015-Feb-28 15:33N 59°34' E 024°42'1717.2
2015-Feb-28 14:33N 59°51' E 024°47'1717.1
2015-Feb-28 13:33N 60°07' E 024°54'2 1.2
2015-Feb-28 12:13N 60°09' E 024°55'1317.6
2015-Feb-28 11:29N 59°56' E 024°53'1920.0
2015-Feb-28 10:33N 59°38' E 024°42'1210.6
2015-Feb-28 09:28N 59°27' E 024°46'4 4.3
2015-Feb-28 08:33N 59°31' E 024°44'2019.8
2015-Feb-28 07:33N 59°50' E 024°48'1914.2
2015-Feb-28 06:12N 60°09' E 024°55'24 2.0
2015-Feb-27 18:04N 59°45' E 024°48'1224.2
2015-Feb-27 17:34N 59°33' E 024°43'7 6.5
2015-Feb-27 16:31N 59°27' E 024°46'7 7.4
2015-Feb-27 15:33N 59°34' E 024°42'2118.1
2015-Feb-27 14:25N 59°54' E 024°51'4 1.3
2015-Feb-27 11:14N 59°51' E 024°55'1420.8
2015-Feb-27 10:34N 59°38' E 024°42'1110.8
2015-Feb-27 09:31N 59°27' E 024°46'3 3.5
2015-Feb-27 08:33N 59°30' E 024°44'2019.4
2015-Feb-27 07:33N 59°50' E 024°47'1919.2
2015-Feb-27 06:33N 60°08' E 024°54'19 1.6
2015-Feb-26 18:26N 59°50' E 024°47'2124.2
2015-Feb-26 17:34N 59°29' E 024°46'2 2.2
2015-Feb-26 16:33N 59°27' E 024°46'9 9.0
2015-Feb-26 15:33N 59°35' E 024°41'11 2.5
2015-Feb-26 11:08N 59°45' E 024°49'1220.6
2015-Feb-26 10:33N 59°34' E 024°43'7 7.3
2015-Feb-26 09:33N 59°27' E 024°46'3 3.4
2015-Feb-26 08:33N 59°30' E 024°45'1918.7
2015-Feb-26 07:33N 59°49' E 024°47'2019.5
2015-Feb-26 06:31N 60°09' E 024°54'23 1.9
2015-Feb-25 18:14N 59°46' E 024°48'1724.7
2015-Feb-25 17:34N 59°29' E 024°46'2 2.0
2015-Feb-25 16:31N 59°27' E 024°46'7 7.8
2015-Feb-25 15:34N 59°34' E 024°42'1818.1
2015-Feb-25 14:33N 59°52' E 024°49'2 0.6
2015-Feb-25 11:20N 59°50' E 024°47'1621.2
2015-Feb-25 10:34N 59°34' E 024°43'7 7.0
2015-Feb-25 09:31N 59°27' E 024°46'4 3.7
2015-Feb-25 08:33N 59°30' E 024°44'1919.1
2015-Feb-25 07:33N 59°49' E 024°50'  

Dump ship's entire track history